Time;durP1;ratioP1;P1;durP2;ratioP2;P2;SDS_P1;SDS_P2;PMS_P1;PMS_P2;Temp;Humidity;BMP_temperature;BMP_pressure;BME280_temperature;BME280_humidity;BME280_pressure;Samples;Min_cycle;Max_cycle;Signal;HPM_P1;HPM_P2
2021/12/31 00:00:07;;;;;;;4.72;4.03;;;;;;;16.15;64.88;101197.25;682643;29;1180;-84
2021/12/31 00:00:29;;;;;;;4.70;4.20;;;;;;;16.12;64.99;101201.59;682537;29;1678;-83
2021/12/31 00:00:49;;;;;;;4.78;4.38;;;;;;;16.11;64.89;101195.44;674888;29;1357;-84
2021/12/31 00:01:10;;;;;;;4.70;4.30;;;;;;;16.20;64.88;101222.75;678284;29;1180;-83
2021/12/31 00:01:31;;;;;;;4.78;4.28;;;;;;;16.14;64.87;101206.03;680310;29;1022;-84
2021/12/31 00:01:53;;;;;;;6.07;4.40;;;;;;;16.20;64.87;101210.47;679944;29;1349;-84
2021/12/31 00:02:13;;;;;;;6.97;4.45;;;;;;;16.10;64.98;101193.66;682469;29;1254;-83
2021/12/31 00:02:34;;;;;;;7.47;4.85;;;;;;;16.15;64.80;101206.88;682732;29;1020;-84
2021/12/31 00:02:54;;;;;;;7.25;4.50;;;;;;;16.21;65.05;101211.38;682728;28;1244;-83
2021/12/31 00:03:16;;;;;;;6.80;4.40;;;;;;;16.13;65.06;101199.00;679993;28;1150;-84
2021/12/31 00:03:37;;;;;;;6.63;4.40;;;;;;;16.12;64.82;101202.47;685431;28;1291;-84
2021/12/31 00:03:58;;;;;;;9.65;4.60;;;;;;;16.18;64.79;101215.72;682868;29;1083;-84
2021/12/31 00:04:19;;;;;;;10.37;4.70;;;;;;;16.17;64.98;101210.44;679755;29;1140;-84
2021/12/31 00:04:39;;;;;;;10.50;4.47;;;;;;;16.09;64.97;101191.91;679898;29;1492;-83
2021/12/31 00:05:00;;;;;;;6.43;4.10;;;;;;;16.10;64.93;101201.56;682661;28;1171;-83
2021/12/31 00:05:20;;;;;;;4.80;3.90;;;;;;;16.09;64.97;101191.91;685220;28;1156;-82
2021/12/31 00:05:41;;;;;;;4.53;3.97;;;;;;;16.20;64.90;101199.03;680139;29;803;-83
2021/12/31 00:06:01;;;;;;;4.97;4.10;;;;;;;16.21;64.78;101203.47;674717;28;1150;-82
2021/12/31 00:06:22;;;;;;;7.63;4.27;;;;;;;16.18;64.66;101196.41;677436;29;1146;-83
2021/12/31 00:06:44;;;;;;;8.17;4.30;;;;;;;16.17;64.90;101199.91;680178;29;1279;-83
2021/12/31 00:07:05;;;;;;;7.72;4.30;;;;;;;16.14;64.77;101190.22;676925;29;2716;-84
2021/12/31 00:07:25;;;;;;;7.63;4.60;;;;;;;16.11;64.66;101194.56;677158;29;2476;-84
2021/12/31 00:07:46;;;;;;;7.20;4.70;;;;;;;16.20;64.78;101199.94;686551;28;1047;-83
2021/12/31 00:08:06;;;;;;;7.27;4.60;;;;;;;16.27;64.68;101193.00;684747;28;1238;-84
2021/12/31 00:08:27;;;;;;;5.22;4.45;;;;;;;16.24;64.76;101204.38;682477;29;1196;-84
2021/12/31 00:08:47;;;;;;;5.82;4.15;;;;;;;16.18;64.69;101192.00;681904;29;1234;-84
2021/12/31 00:09:08;;;;;;;6.77;4.10;;;;;;;16.13;64.73;101201.63;679756;29;1196;-84
2021/12/31 00:09:28;;;;;;;6.88;3.90;;;;;;;16.10;64.86;101188.41;682118;29;1967;-84
2021/12/31 00:09:49;;;;;;;5.30;3.70;;;;;;;16.09;64.66;101199.81;682846;28;1288;-83
2021/12/31 00:10:09;;;;;;;4.20;3.50;;;;;;;15.98;64.90;101191.78;679898;29;1632;-83
2021/12/31 00:10:30;;;;;;;4.93;3.50;;;;;;;16.00;65.28;101197.06;685477;28;1193;-84
2021/12/31 00:10:56;;;;;;;6.10;3.95;;;;;;;15.93;65.05;101189.97;682473;28;1353;-84
2021/12/31 00:11:17;;;;;;;5.72;4.00;;;;;;;15.97;65.26;101200.53;677333;29;1732;-82
2021/12/31 00:11:38;;;;;;;6.00;3.92;;;;;;;15.99;65.11;101190.03;682585;29;1242;-83
2021/12/31 00:11:58;;;;;;;4.63;3.50;;;;;;;15.95;65.51;101189.13;680120;29;993;-83
2021/12/31 00:12:19;;;;;;;3.63;3.33;;;;;;;15.95;65.24;101197.00;682434;28;1350;-83
2021/12/31 00:12:42;;;;;;;3.50;3.20;;;;;;;15.97;65.26;101202.31;685421;28;782;-83
2021/12/31 00:13:03;;;;;;;3.50;3.20;;;;;;;15.94;65.03;101190.00;682626;29;1367;-85
2021/12/31 00:13:23;;;;;;;3.58;3.20;;;;;;;16.00;65.34;101191.81;682780;28;1263;-83
2021/12/31 00:13:44;;;;;;;4.07;3.30;;;;;;;16.04;65.04;101191.84;682775;29;1180;-83
2021/12/31 00:14:04;;;;;;;4.47;3.40;;;;;;;15.99;64.88;101184.78;679897;29;1139;-83
2021/12/31 00:14:25;;;;;;;4.32;3.33;;;;;;;16.06;64.89;101191.00;680185;29;874;-84
2021/12/31 00:14:45;;;;;;;5.50;3.50;;;;;;;16.04;64.93;101180.44;677513;29;1372;-84
2021/12/31 00:15:06;;;;;;;6.97;3.63;;;;;;;16.12;64.60;101201.59;687814;28;1369;-84
2021/12/31 00:15:27;;;;;;;7.70;3.85;;;;;;;16.15;64.54;101192.00;682762;28;1272;-83
2021/12/31 00:15:48;;;;;;;7.53;3.87;;;;;;;16.07;64.79;101192.75;680061;29;1167;-84
2021/12/31 00:16:08;;;;;;;5.65;4.03;;;;;;;16.03;64.93;101197.09;683188;28;1287;-83
2021/12/31 00:16:29;;;;;;;6.90;3.97;;;;;;;16.00;64.89;101199.69;685333;28;1404;-84
2021/12/31 00:16:49;;;;;;;7.20;4.00;;;;;;;16.05;64.94;101198.03;685330;28;1447;-84
2021/12/31 00:17:10;;;;;;;8.07;3.58;;;;;;;16.00;64.77;101186.53;675219;29;1173;-83
2021/12/31 00:17:30;;;;;;;6.60;3.47;;;;;;;16.04;64.87;101210.28;672457;29;1158;-83
2021/12/31 00:17:51;;;;;;;6.28;3.42;;;;;;;16.03;64.75;101183.94;680145;29;1159;-84
2021/12/31 00:18:12;;;;;;;4.65;3.20;;;;;;;16.11;64.46;101184.03;681149;29;1194;-84
2021/12/31 00:18:33;;;;;;;5.30;3.30;;;;;;;16.15;64.42;101188.47;677596;29;785;-83
2021/12/31 00:18:53;;;;;;;4.20;3.00;;;;;;;16.15;64.20;101189.34;681425;29;1252;-83
2021/12/31 00:19:15;;;;;;;4.45;3.15;;;;;;;16.24;64.28;101198.22;680034;29;1046;-82
2021/12/31 00:19:43;;;;;;;5.28;3.08;;;;;;;16.20;64.33;101193.78;682537;29;1258;-84
2021/12/31 00:20:10;;;;;;;6.00;3.20;;;;;;;16.17;64.02;101179.72;677022;29;1439;-84
2021/12/31 00:20:32;;;;;;;7.10;3.90;;;;;;;16.16;64.08;101188.47;680063;28;1344;-83
2021/12/31 00:20:55;;;;;;;5.50;3.75;;;;;;;16.20;64.20;101188.50;676668;29;1166;-83
2021/12/31 00:21:15;;;;;;;3.72;3.08;;;;;;;16.17;63.99;101184.97;680163;29;1121;-83
2021/12/31 00:21:37;;;;;;;3.50;3.20;;;;;;;16.14;63.81;101186.69;679957;28;1248;-83
2021/12/31 00:21:59;;;;;;;6.05;3.40;;;;;;;16.26;64.00;101189.50;677463;29;1218;-83
2021/12/31 00:23:13;;;;;;;3.88;2.85;;;;;;;16.20;63.47;101173.59;680057;29;1112;-83
2021/12/31 00:23:33;;;;;;;3.67;2.90;;;;;;;16.25;63.60;101177.22;677419;29;772;-84
2021/12/31 00:23:56;;;;;;;5.45;3.30;;;;;;;16.33;63.63;101185.19;682662;29;1099;-84
2021/12/31 00:24:17;;;;;;;6.35;3.40;;;;;;;16.25;63.56;101171.06;684397;28;1065;-83
2021/12/31 00:24:38;;;;;;;6.43;3.47;;;;;;;16.30;63.68;101195.69;674945;29;1212;-84
2021/12/31 00:24:59;;;;;;;5.65;3.40;;;;;;;16.34;63.58;101184.31;680132;29;1186;-84
2021/12/31 00:25:20;;;;;;;4.95;3.30;;;;;;;16.21;63.76;101179.78;682402;28;1559;-83
2021/12/31 00:25:42;;;;;;;5.75;3.25;;;;;;;16.25;63.64;101178.94;682142;29;1215;-84
2021/12/31 00:26:03;;;;;;;6.00;3.40;;;;;;;16.31;63.41;101182.53;674780;29;1074;-83
2021/12/31 00:26:23;;;;;;;6.20;3.33;;;;;;;16.37;63.35;101186.09;682826;29;1083;-83
2021/12/31 00:26:44;;;;;;;4.55;3.28;;;;;;;16.24;63.57;101169.25;680163;29;1183;-84
2021/12/31 00:27:05;;;;;;;3.97;2.90;;;;;;;16.26;63.52;101171.06;678848;29;1172;-84
2021/12/31 00:27:25;;;;;;;3.35;3.05;;;;;;;16.27;63.69;101179.84;675056;29;813;-83
2021/12/31 00:27:46;;;;;;;3.35;3.00;;;;;;;16.21;63.63;101169.25;680216;29;737;-83
2021/12/31 00:28:08;;;;;;;5.60;3.00;;;;;;;16.28;63.76;101176.34;683040;28;1081;-84
2021/12/31 00:28:28;;;;;;;6.80;3.03;;;;;;;16.26;63.50;101176.34;677373;29;1360;-83
2021/12/31 00:28:49;;;;;;;6.53;3.10;;;;;;;16.33;63.52;101190.44;674595;29;1346;-83
2021/12/31 00:29:09;;;;;;;5.73;3.00;;;;;;;16.28;63.40;101181.59;675380;29;1302;-84
2021/12/31 00:29:30;;;;;;;5.25;3.00;;;;;;;16.28;63.41;101181.59;676969;29;1981;-83
2021/12/31 00:29:51;;;;;;;5.25;3.10;;;;;;;16.38;63.51;101180.84;685252;28;1180;-85
2021/12/31 00:30:12;;;;;;;5.20;3.20;;;;;;;16.30;63.48;101179.91;680414;29;1057;-82
2021/12/31 00:30:34;;;;;;;4.72;3.15;;;;;;;16.29;63.44;101179.00;680072;29;1087;-82
2021/12/31 00:30:55;;;;;;;5.20;2.92;;;;;;;16.31;63.43;101184.28;677140;29;1891;-83
2021/12/31 00:31:16;;;;;;;5.10;3.03;;;;;;;16.29;63.39;101191.31;677299;29;1469;-83
2021/12/31 00:31:36;;;;;;;5.82;3.20;;;;;;;16.29;63.45;101188.66;682688;29;1451;-82
2021/12/31 00:31:57;;;;;;;4.97;3.00;;;;;;;16.34;63.30;101179.03;680446;28;1301;-83
2021/12/31 00:32:18;;;;;;;5.03;2.67;;;;;;;16.23;63.19;101175.41;682629;29;1263;-82
2021/12/31 00:32:38;;;;;;;4.70;2.40;;;;;;;16.26;63.50;101165.81;680163;29;1370;-83
2021/12/31 00:33:01;;;;;;;3.33;2.50;;;;;;;16.31;63.24;101176.41;682583;29;1043;-83
2021/12/31 00:33:23;;;;;;;2.97;2.67;;;;;;;16.31;63.09;101173.75;677299;29;1317;-83
2021/12/31 00:33:44;;;;;;;4.10;2.80;;;;;;;16.35;63.02;101179.94;680057;29;1124;-82
2021/12/31 00:34:04;;;;;;;3.88;2.60;;;;;;;16.37;62.87;101181.72;682688;28;2508;-82
2021/12/31 00:34:25;;;;;;;4.33;2.70;;;;;;;16.40;62.92;101186.13;684469;28;1035;-83
2021/12/31 00:34:46;;;;;;;4.00;3.00;;;;;;;16.39;62.95;101176.47;682693;29;1050;-84
2021/12/31 00:35:07;;;;;;;3.95;3.20;;;;;;;16.36;62.99;101193.13;684822;28;1306;-82
2021/12/31 00:35:28;;;;;;;4.97;3.08;;;;;;;16.34;63.01;101180.81;682471;29;1233;-83
2021/12/31 00:35:49;;;;;;;5.85;3.00;;;;;;;16.28;62.89;101173.69;679522;29;1223;-83
2021/12/31 00:36:09;;;;;;;6.03;2.90;;;;;;;16.33;62.89;101177.28;677181;29;1181;-83
2021/12/31 00:36:47;;;;;;;4.43;2.80;;;;;;;16.32;62.96;101167.63;680000;29;1136;-83
2021/12/31 00:37:08;;;;;;;4.55;2.90;;;;;;;16.35;62.90;101183.44;680575;28;1390;-83
2021/12/31 00:37:31;;;;;;;3.97;2.83;;;;;;;16.33;62.83;101184.31;674776;29;1277;-84
2021/12/31 00:37:52;;;;;;;3.20;2.53;;;;;;;16.39;62.71;101182.63;674883;29;955;-83
2021/12/31 00:38:12;;;;;;;2.80;2.60;;;;;;;16.35;62.77;101188.72;678530;29;1271;-83
2021/12/31 00:38:33;;;;;;;3.03;2.78;;;;;;;16.34;62.82;101180.81;679917;29;1163;-84
2021/12/31 00:38:53;;;;;;;4.83;3.10;;;;;;;16.29;62.84;101167.59;685264;28;1241;-83
2021/12/31 00:39:15;;;;;;;4.70;3.00;;;;;;;16.35;62.94;101182.56;682304;29;1099;-83
2021/12/31 00:39:35;;;;;;;4.93;3.30;;;;;;;16.33;62.53;101185.19;677443;29;891;-83
2021/12/31 00:39:56;;;;;;;4.18;3.10;;;;;;;16.30;62.92;101180.75;680044;29;934;-83
2021/12/31 00:40:18;;;;;;;5.03;3.35;;;;;;;16.19;63.06;101163.94;681597;29;1093;-82
2021/12/31 00:40:38;;;;;;;5.28;3.20;;;;;;;16.23;62.92;101168.34;687101;28;1098;-83
2021/12/31 00:40:59;;;;;;;4.88;3.20;;;;;;;16.28;62.93;101166.69;685114;28;1438;-84
2021/12/31 00:41:19;;;;;;;4.45;2.90;;;;;;;16.29;62.95;101159.69;685137;28;1088;-83
2021/12/31 00:41:42;;;;;;;3.63;2.80;;;;;;;16.21;63.06;101163.97;680015;29;1169;-83
2021/12/31 00:42:04;;;;;;;5.60;3.20;;;;;;;16.33;62.94;101172.00;679716;29;1209;-82
2021/12/31 00:42:24;;;;;;;5.25;3.50;;;;;;;16.37;63.08;101178.19;681990;29;1573;-83
2021/12/31 00:42:45;;;;;;;7.07;3.50;;;;;;;16.29;62.91;101164.97;679998;29;1035;-83
2021/12/31 00:43:06;;;;;;;6.65;3.13;;;;;;;16.33;62.87;101187.81;679837;29;1377;-83
2021/12/31 00:43:27;;;;;;;7.85;3.10;;;;;;;16.37;62.76;101189.63;680032;28;1288;-83
2021/12/31 00:43:48;;;;;;;7.30;2.97;;;;;;;16.37;62.51;101167.66;680013;29;1229;-84
2021/12/31 00:44:08;;;;;;;7.55;3.00;;;;;;;16.37;62.72;101187.00;675863;29;1995;-83
2021/12/31 00:44:29;;;;;;;6.50;2.80;;;;;;;16.39;62.67;101174.72;682686;28;1288;-83
2021/12/31 00:44:50;;;;;;;5.78;2.70;;;;;;;16.34;62.58;101172.91;682597;29;1338;-83
2021/12/31 00:45:14;;;;;;;3.80;2.50;;;;;;;16.43;62.69;101183.53;681856;28;1561;-83
2021/12/31 00:45:38;;;;;;;2.97;2.67;;;;;;;16.39;62.52;101185.25;683771;28;1764;-84
2021/12/31 00:46:01;;;;;;;4.07;2.70;;;;;;;16.40;62.53;101179.13;679946;29;1291;-83
2021/12/31 00:46:22;;;;;;;4.18;2.60;;;;;;;16.36;62.44;101179.06;682416;29;1290;-83
2021/12/31 00:46:42;;;;;;;4.53;2.70;;;;;;;16.34;62.41;101171.16;679989;29;1027;-82
2021/12/31 00:47:03;;;;;;;3.13;2.70;;;;;;;16.35;62.51;101182.56;674593;29;1211;-83
2021/12/31 00:47:24;;;;;;;3.67;2.60;;;;;;;16.36;62.50;101173.81;677506;29;1040;-83
2021/12/31 00:47:44;;;;;;;3.73;2.50;;;;;;;16.41;62.35;101185.28;685000;28;1329;-82
2021/12/31 00:48:05;;;;;;;5.55;2.95;;;;;;;16.38;62.46;101183.50;682388;29;1274;-84
2021/12/31 00:48:25;;;;;;;5.70;3.27;;;;;;;16.43;62.25;101194.94;674684;29;1282;-83
2021/12/31 00:48:46;;;;;;;6.47;3.30;;;;;;;16.45;62.38;101192.31;680050;29;1406;-84
2021/12/31 00:49:07;;;;;;;6.53;3.35;;;;;;;16.44;62.34;101191.47;682801;28;1185;-82
2021/12/31 00:49:27;;;;;;;6.63;3.30;;;;;;;16.43;62.31;101186.16;682024;28;1975;-82
2021/12/31 00:49:48;;;;;;;5.72;3.30;;;;;;;16.43;62.18;101187.03;679840;29;1165;-84
2021/12/31 00:50:10;;;;;;;3.73;2.90;;;;;;;16.41;62.16;101182.66;677334;29;1186;-83
2021/12/31 00:50:31;;;;;;;3.10;2.80;;;;;;;16.46;62.32;101185.31;680031;29;1262;-83
2021/12/31 00:51:08;;;;;;;2.90;2.70;;;;;;;16.45;62.40;101179.16;680069;29;1189;-83
2021/12/31 00:51:30;;;;;;;3.67;3.20;;;;;;;16.40;62.17;101160.69;679931;29;1367;-83
2021/12/31 00:51:50;;;;;;;4.35;3.20;;;;;;;16.44;62.12;101172.13;685389;28;1265;-83
2021/12/31 00:52:11;;;;;;;5.17;3.17;;;;;;;16.46;62.16;101173.03;682495;28;1310;-83
2021/12/31 00:52:32;;;;;;;5.07;3.10;;;;;;;16.38;61.93;101167.69;687959;28;815;-83
2021/12/31 00:52:52;;;;;;;5.05;3.00;;;;;;;16.41;62.33;101183.50;682872;28;1245;-83
2021/12/31 00:53:13;;;;;;;4.83;2.90;;;;;;;16.46;62.20;101177.44;681836;29;1292;-83
2021/12/31 00:53:34;;;;;;;6.22;2.78;;;;;;;16.47;62.03;101166.88;682535;29;1559;-84
2021/12/31 00:53:54;;;;;;;4.97;2.60;;;;;;;16.42;62.09;101169.47;677368;29;1203;-82
2021/12/31 00:54:17;;;;;;;5.20;2.70;;;;;;;16.42;61.96;101173.88;680522;28;1719;-81
2021/12/31 00:54:38;;;;;;;5.32;2.75;;;;;;;16.46;62.00;101172.16;680678;29;1546;-83
2021/12/31 00:54:59;;;;;;;7.28;3.00;;;;;;;16.44;62.17;101178.28;682484;29;1428;-84
2021/12/31 00:55:19;;;;;;;10.50;3.00;;;;;;;16.53;62.01;101192.44;676584;29;1221;-83
2021/12/31 00:55:40;;;;;;;9.23;2.92;;;;;;;16.42;62.08;101182.63;677295;29;1073;-83
2021/12/31 00:56:00;;;;;;;5.70;2.60;;;;;;;16.46;61.91;101182.69;677260;29;1201;-84
2021/12/31 00:56:21;;;;;;;4.40;2.80;;;;;;;16.52;61.94;101182.72;682460;28;1436;-81
2021/12/31 00:56:44;;;;;;;3.72;2.80;;;;;;;16.50;61.89;101189.75;680751;29;1790;-83
2021/12/31 00:57:05;;;;;;;3.45;2.80;;;;;;;16.51;61.84;101189.75;682251;29;1381;-83
2021/12/31 00:57:26;;;;;;;3.53;2.90;;;;;;;16.48;61.88;101188.84;680134;29;776;-84
2021/12/31 00:57:48;;;;;;;4.87;3.00;;;;;;;16.44;61.89;101187.94;677503;29;1136;-83
2021/12/31 00:58:09;;;;;;;3.88;3.00;;;;;;;16.42;61.87;101187.03;682295;28;1351;-82
2021/12/31 00:58:29;;;;;;;5.27;2.87;;;;;;;16.44;61.69;101183.56;680038;29;884;-83
2021/12/31 00:58:50;;;;;;;4.45;2.70;;;;;;;16.49;61.80;101196.78;677269;29;1295;-82
2021/12/31 00:59:10;;;;;;;6.50;2.87;;;;;;;16.48;61.85;101183.59;678771;29;1085;-83
2021/12/31 00:59:31;;;;;;;4.70;2.90;;;;;;;16.41;61.71;101186.16;679730;29;1087;-82
2021/12/31 00:59:52;;;;;;;5.10;3.00;;;;;;;16.52;61.91;101195.91;677423;29;960;-83
2021/12/31 01:00:15;;;;;;;3.00;2.70;;;;;;;16.52;61.72;101194.16;677319;29;1175;-83
2021/12/31 01:00:35;;;;;;;5.00;2.88;;;;;;;16.52;61.77;101188.00;682500;29;801;-83
2021/12/31 01:00:56;;;;;;;4.80;2.70;;;;;;;16.44;61.78;101183.56;682656;29;1233;-83
2021/12/31 01:01:20;;;;;;;4.78;2.70;;;;;;;16.54;61.65;101199.47;685171;28;1365;-83
2021/12/31 01:01:40;;;;;;;4.60;2.65;;;;;;;16.52;61.62;101181.00;679587;28;1516;-83
2021/12/31 01:02:04;;;;;;;6.90;2.80;;;;;;;16.49;61.35;101170.44;679847;29;1217;-83
2021/12/31 01:02:27;;;;;;;6.57;3.10;;;;;;;16.47;61.48;101174.78;680089;29;1495;-83
2021/12/31 01:02:48;;;;;;;4.55;2.72;;;;;;;16.43;61.52;101179.13;683889;28;1163;-83
2021/12/31 01:03:08;;;;;;;3.83;2.65;;;;;;;16.43;61.47;101181.75;680565;29;1178;-84
2021/12/31 01:03:29;;;;;;;4.30;2.80;;;;;;;16.42;61.70;101182.63;676978;29;1486;-83
2021/12/31 01:03:50;;;;;;;4.95;2.90;;;;;;;16.44;61.58;101175.66;677208;29;1502;-82
2021/12/31 01:04:10;;;;;;;5.10;2.70;;;;;;;16.49;61.66;101187.97;680708;29;1270;-83
2021/12/31 01:04:32;;;;;;;5.43;2.70;;;;;;;16.56;61.41;101182.81;679974;29;1333;-83
2021/12/31 01:04:53;;;;;;;5.05;2.60;;;;;;;16.54;61.56;101187.16;682634;29;949;-83
2021/12/31 01:05:15;;;;;;;5.70;2.70;;;;;;;16.57;61.73;101175.75;678450;29;1215;-83
2021/12/31 01:05:35;;;;;;;4.80;2.60;;;;;;;16.54;61.41;101181.00;677434;29;851;-83
2021/12/31 01:05:56;;;;;;;4.20;2.45;;;;;;;16.51;61.40;101173.06;679914;29;985;-83
2021/12/31 01:06:17;;;;;;;2.70;2.23;;;;;;;16.46;61.66;101185.31;683481;28;1423;-84
2021/12/31 01:06:37;;;;;;;3.72;2.38;;;;;;;16.47;61.47;101181.81;677553;29;773;-83
2021/12/31 01:07:13;;;;;;;4.13;2.40;;;;;;;16.48;61.25;101186.22;679914;29;1252;-83
2021/12/31 01:07:34;;;;;;;3.88;2.40;;;;;;;16.44;61.36;101190.56;686149;28;1139;-83
2021/12/31 01:07:54;;;;;;;3.37;2.30;;;;;;;16.47;61.44;101192.34;682517;29;1169;-83
2021/12/31 01:08:15;;;;;;;3.65;2.40;;;;;;;16.48;61.36;101188.84;682482;29;1183;-83
2021/12/31 01:08:35;;;;;;;3.40;2.60;;;;;;;16.48;61.18;101184.47;677399;29;840;-83
2021/12/31 01:08:56;;;;;;;5.32;2.60;;;;;;;16.49;61.17;101172.16;677344;29;1107;-83
2021/12/31 01:09:16;;;;;;;6.20;2.63;;;;;;;16.53;61.28;101185.38;676792;29;1188;-83
2021/12/31 01:09:37;;;;;;;8.68;2.78;;;;;;;16.50;61.46;101187.09;682237;28;1980;-83
2021/12/31 01:10:00;;;;;;;7.70;2.88;;;;;;;16.49;61.31;101187.97;681890;29;1095;-83
2021/12/31 01:10:23;;;;;;;4.28;2.53;;;;;;;16.44;61.74;101187.94;679781;29;1160;-84
2021/12/31 01:10:44;;;;;;;4.47;2.30;;;;;;;16.49;61.34;101195.88;678371;29;1518;-83
2021/12/31 01:11:05;;;;;;;6.25;2.30;;;;;;;16.51;61.37;101194.13;679736;29;1158;-84
2021/12/31 01:11:25;;;;;;;5.47;2.20;;;;;;;16.46;61.22;101204.63;677440;29;991;-83
2021/12/31 01:11:47;;;;;;;4.77;2.20;;;;;;;16.52;61.27;101194.16;682474;29;1454;-83
2021/12/31 01:12:10;;;;;;;3.40;2.35;;;;;;;16.51;61.10;101194.13;680444;29;1155;-83
2021/12/31 01:12:32;;;;;;;3.20;2.40;;;;;;;16.53;61.02;101197.69;681993;29;873;-83
2021/12/31 01:12:53;;;;;;;3.13;2.50;;;;;;;16.55;61.20;101188.03;677310;29;1217;-83
2021/12/31 01:13:24;;;;;;;3.40;2.50;;;;;;;16.54;60.96;101181.00;681561;29;1557;-83
2021/12/31 01:13:58;;;;;;;4.03;2.50;;;;;;;16.52;61.10;101188.00;680017;29;810;-83
2021/12/31 01:14:39;;;;;;;3.10;2.30;;;;;;;16.54;60.86;101184.50;679219;29;1069;-82
2021/12/31 01:15:06;;;;;;;3.25;2.30;;;;;;;16.62;60.77;101200.41;679961;29;1079;-83
2021/12/31 01:15:37;;;;;;;2.80;2.58;;;;;;;16.55;60.72;101183.63;681157;29;1691;-82
2021/12/31 01:16:00;;;;;;;3.83;2.35;;;;;;;16.61;60.66;101205.66;684802;28;1138;-83
2021/12/31 01:16:22;;;;;;;3.60;2.20;;;;;;;16.63;60.66;101198.66;682864;28;1119;-84
2021/12/31 01:16:49;;;;;;;3.47;2.15;;;;;;;16.63;60.57;101196.00;680155;29;1836;-83
2021/12/31 01:17:13;;;;;;;2.40;2.20;;;;;;;16.59;60.51;101192.47;680522;29;1395;-83
2021/12/31 01:18:26;;;;;;;4.45;2.50;;;;;;;16.64;60.46;101201.31;682230;28;1424;-83
2021/12/31 01:19:46;;;;;;;3.63;2.30;;;;;;;16.65;60.36;101191.66;671541;29;1124;-84
2021/12/31 01:20:07;;;;;;;5.72;2.50;;;;;;;16.65;60.32;101202.19;677093;29;1251;-82
2021/12/31 01:20:27;;;;;;;7.10;2.50;;;;;;;16.70;60.39;101205.75;679789;29;839;-84
2021/12/31 01:20:48;;;;;;;6.40;2.60;;;;;;;16.70;60.19;101205.75;677302;29;1386;-83
2021/12/31 01:21:09;;;;;;;4.85;2.60;;;;;;;16.70;60.31;101217.19;677936;29;1041;-82
2021/12/31 01:21:33;;;;;;;3.70;2.80;;;;;;;16.64;60.18;101189.88;677824;29;1122;-83
2021/12/31 01:21:54;;;;;;;5.65;2.60;;;;;;;16.67;60.04;101201.31;682646;29;1021;-83
2021/12/31 01:22:17;;;;;;;4.05;2.20;;;;;;;16.65;60.12;101197.78;682288;28;1493;-83
2021/12/31 01:22:38;;;;;;;3.90;2.38;;;;;;;16.73;60.14;101203.16;674747;29;1240;-84
2021/12/31 01:22:58;;;;;;;4.00;2.40;;;;;;;16.70;59.91;101195.19;679910;29;975;-84
2021/12/31 01:23:19;;;;;;;3.30;2.17;;;;;;;16.69;59.93;101194.34;679707;29;1458;-83
2021/12/31 01:23:39;;;;;;;2.20;2.00;;;;;;;16.69;59.84;101196.97;682392;29;794;-83
2021/12/31 01:24:01;;;;;;;3.67;2.13;;;;;;;16.77;59.88;101191.75;682489;29;1132;-83
2021/12/31 01:24:28;;;;;;;3.78;2.20;;;;;;;16.75;59.84;101203.16;677048;29;1332;-83
2021/12/31 01:24:49;;;;;;;4.88;2.30;;;;;;;16.67;59.88;101193.41;677259;29;1049;-83
2021/12/31 01:25:10;;;;;;;4.35;2.15;;;;;;;16.78;59.84;101217.25;679667;29;1175;-82
2021/12/31 01:25:30;;;;;;;4.93;2.22;;;;;;;16.78;59.81;101219.88;682517;29;1513;-83
2021/12/31 01:25:51;;;;;;;5.45;2.30;;;;;;;16.79;59.59;101197.91;674601;29;1274;-84
2021/12/31 01:26:11;;;;;;;4.63;2.23;;;;;;;16.73;59.83;101205.78;675831;29;1066;-84
2021/12/31 01:26:33;;;;;;;4.88;2.13;;;;;;;16.69;59.55;101193.44;677181;29;1299;-83
2021/12/31 01:26:53;;;;;;;5.38;2.20;;;;;;;16.68;59.70;101192.56;679887;29;1080;-82
2021/12/31 01:27:14;;;;;;;5.20;2.33;;;;;;;16.72;59.69;101207.53;679742;28;1240;-83
2021/12/31 01:27:36;;;;;;;4.35;2.70;;;;;;;16.70;59.47;101201.38;682267;29;1658;-83
2021/12/31 01:27:57;;;;;;;3.75;2.67;;;;;;;16.77;59.48;101196.16;682261;29;1249;-83
2021/12/31 01:28:19;;;;;;;5.43;2.53;;;;;;;16.76;59.41;101199.63;677305;29;1029;-83
2021/12/31 01:28:39;;;;;;;4.88;2.20;;;;;;;16.78;59.36;101203.19;682384;29;1241;-83
2021/12/31 01:29:00;;;;;;;5.25;2.30;;;;;;;16.80;59.45;101212.00;679832;29;1462;-83
2021/12/31 01:29:20;;;;;;;5.10;2.70;;;;;;;16.68;59.36;101194.31;679407;29;1520;-83
2021/12/31 01:29:41;;;;;;;5.13;2.90;;;;;;;16.80;59.41;101206.72;676397;29;1931;-84
2021/12/31 01:30:04;;;;;;;4.43;2.75;;;;;;;16.78;59.44;101192.66;682410;29;1336;-83
2021/12/31 01:30:25;;;;;;;3.60;2.40;;;;;;;16.74;59.46;101202.28;682680;29;863;-83
2021/12/31 01:30:45;;;;;;;3.53;2.30;;;;;;;16.77;59.32;101207.56;682688;29;954;-84
2021/12/31 01:31:06;;;;;;;2.53;2.23;;;;;;;16.79;59.33;101194.41;682439;28;1158;-83
2021/12/31 01:31:27;;;;;;;2.67;2.40;;;;;;;16.78;59.36;101209.31;682232;29;1532;-83
2021/12/31 01:31:50;;;;;;;2.80;2.30;;;;;;;16.78;59.33;101203.19;681574;29;1253;-83
2021/12/31 01:32:11;;;;;;;3.05;2.30;;;;;;;16.90;59.09;101200.66;679632;29;1225;-83
2021/12/31 01:32:32;;;;;;;2.65;2.30;;;;;;;16.87;59.30;101208.53;680006;29;1289;-83
2021/12/31 01:32:55;;;;;;;3.60;2.92;;;;;;;16.80;59.03;101206.72;682573;29;1366;-82
2021/12/31 01:33:15;;;;;;;3.97;3.30;;;;;;;16.83;58.98;101189.19;681258;29;1150;-83
2021/12/31 01:33:36;;;;;;;4.63;3.10;;;;;;;16.86;58.84;101201.50;684333;28;1121;-83
2021/12/31 01:33:56;;;;;;;3.90;2.47;;;;;;;16.78;59.24;101203.19;682600;29;950;-82
2021/12/31 01:34:17;;;;;;;3.47;2.23;;;;;;;16.81;59.04;101200.56;678911;29;1208;-83
2021/12/31 01:34:38;;;;;;;3.40;2.40;;;;;;;16.86;58.88;101212.06;685304;28;950;-83
2021/12/31 01:34:59;;;;;;;4.60;2.60;;;;;;;16.85;58.75;101199.75;682350;29;1361;-83
2021/12/31 01:35:20;;;;;;;4.80;2.60;;;;;;;16.91;58.70;101189.22;682329;29;1268;-83
2021/12/31 01:35:40;;;;;;;4.20;2.37;;;;;;;16.92;58.61;101201.56;679832;29;1181;-84
2021/12/31 01:36:01;;;;;;;2.30;2.10;;;;;;;16.93;58.45;101192.78;679900;29;977;-83
2021/12/31 01:36:21;;;;;;;4.23;2.47;;;;;;;16.96;58.55;101211.25;677249;29;1076;-83
2021/12/31 01:36:42;;;;;;;4.28;2.60;;;;;;;16.93;58.51;101198.06;679594;29;1474;-83
2021/12/31 01:37:03;;;;;;;5.33;2.70;;;;;;;16.93;58.49;101191.88;682374;29;1129;-83
2021/12/31 01:37:23;;;;;;;3.58;2.50;;;;;;;16.86;58.59;101209.41;679767;29;1157;-83
2021/12/31 01:37:44;;;;;;;4.10;2.50;;;;;;;16.97;58.21;101202.47;682783;28;1262;-83
2021/12/31 01:38:05;;;;;;;4.00;2.40;;;;;;;16.88;58.44;101204.13;679589;29;1143;-83
2021/12/31 01:38:25;;;;;;;3.50;2.40;;;;;;;16.86;58.31;101194.47;679890;29;957;-83
2021/12/31 01:38:46;;;;;;;3.60;2.40;;;;;;;16.97;58.40;101198.97;682645;29;1388;-83
2021/12/31 01:39:07;;;;;;;3.87;2.87;;;;;;;17.02;58.35;101199.00;677391;29;1092;-83
2021/12/31 01:39:28;;;;;;;5.03;3.00;;;;;;;16.99;58.11;101207.75;676957;29;780;-83
2021/12/31 01:39:49;;;;;;;6.40;2.83;;;;;;;16.93;58.30;101192.78;684937;28;1205;-82
2021/12/31 01:40:11;;;;;;;6.47;2.38;;;;;;;16.98;58.21;101211.28;682411;29;1163;-84
2021/12/31 01:40:31;;;;;;;7.07;2.50;;;;;;;16.94;58.33;101201.56;677307;29;1166;-83
2021/12/31 01:40:52;;;;;;;5.68;2.50;;;;;;;16.96;57.95;101200.72;677302;29;1188;-83
2021/12/31 01:41:13;;;;;;;6.22;2.22;;;;;;;16.95;58.18;101193.66;681017;29;1112;-82
2021/12/31 01:41:33;;;;;;;4.95;2.30;;;;;;;16.97;58.15;101201.59;674521;29;1433;-83
2021/12/31 01:41:58;;;;;;;4.47;2.50;;;;;;;17.02;58.19;101196.38;684201;28;1051;-83
2021/12/31 01:42:25;;;;;;;3.85;2.47;;;;;;;16.89;58.15;101180.44;687651;28;1380;-83
2021/12/31 01:42:45;;;;;;;4.03;2.40;;;;;;;16.96;58.13;101187.53;687917;28;1250;-82
2021/12/31 01:43:06;;;;;;;3.17;2.37;;;;;;;16.94;58.06;101197.19;682406;29;1023;-84
2021/12/31 01:43:26;;;;;;;4.68;2.35;;;;;;;16.95;58.07;101204.22;677285;29;1315;-84
2021/12/31 01:43:47;;;;;;;6.20;2.40;;;;;;;16.89;58.10;101196.25;677231;29;1144;-84
2021/12/31 01:44:08;;;;;;;7.25;2.55;;;;;;;16.91;58.16;101197.13;680127;29;1192;-82
2021/12/31 01:44:43;;;;;;;6.15;2.60;;;;;;;16.87;58.01;101190.09;679836;29;1034;-83
2021/12/31 01:45:16;;;;;;;5.00;2.50;;;;;;;16.97;57.87;101202.47;679468;29;1114;-84
2021/12/31 01:45:43;;;;;;;3.00;2.25;;;;;;;16.95;58.02;101201.59;679918;29;914;-84
2021/12/31 01:46:11;;;;;;;4.33;2.20;;;;;;;16.92;57.98;101201.56;682466;29;1399;-83